Time;durP1;ratioP1;P1;durP2;ratioP2;P2;SDS_P1;SDS_P2;PMS_P1;PMS_P2;Temp;Humidity;BMP_temperature;BMP_pressure;BME280_temperature;BME280_humidity;BME280_pressure;Samples;Min_cycle;Max_cycle;Signal;HPM_P1;HPM_P2
2022/02/10 00:16:36;;;;;;;;;47.00;39.00;;;;;9.59;67.54;101974.53;5074535;28;45581;-76
2022/02/10 00:21:33;;;;;;;;;57.00;42.00;;;;;9.63;67.05;101983.41;5071823;28;45464;-76
2022/02/10 00:24:28;;;;;;;;;47.50;39.50;;;;;9.64;67.30;101982.56;5064163;28;47487;-76
2022/02/10 00:35:08;;;;;;;;;52.75;39.75;;;;;9.59;67.54;101990.38;5077327;28;45822;-74
2022/02/10 00:37:49;;;;;;;;;54.50;42.50;;;;;9.61;67.32;101991.28;5071516;28;45484;-76
2022/02/10 00:40:19;;;;;;;;;51.50;39.00;;;;;9.58;67.62;101982.38;5071069;28;45616;-76
2022/02/10 00:42:45;;;;;;;;;49.00;39.75;;;;;9.61;67.28;101987.75;5077376;28;45521;-75
2022/02/10 00:45:12;;;;;;;;;54.25;40.75;;;;;9.61;67.57;101987.75;5070079;28;64022;-77
2022/02/10 00:47:59;;;;;;;;;57.25;42.25;;;;;9.63;67.39;101991.34;5075320;28;45581;-76
2022/02/10 00:50:26;;;;;;;;;54.50;42.00;;;;;9.62;67.75;101981.63;5059681;28;45319;-76
2022/02/10 00:53:01;;;;;;;;;51.75;40.00;;;;;9.66;67.53;101981.78;5077514;28;45504;-76
2022/02/10 00:55:37;;;;;;;;;56.00;41.50;;;;;9.68;67.94;101973.94;5060739;28;47381;-76
2022/02/10 00:58:06;;;;;;;;;51.75;42.00;;;;;9.71;67.74;101979.31;5076867;28;45423;-75
2022/02/10 01:14:32;;;;;;;;;46.75;35.25;;;;;9.76;67.97;101982.09;5076497;27;45359;-76
2022/02/10 01:30:26;;;;;;;;;57.00;43.50;;;;;9.80;67.65;101995.44;5109925;27;45542;-75
2022/02/10 01:33:02;;;;;;;;;42.00;33.50;;;;;9.81;67.71;101988.44;5104433;27;45355;-78
2022/02/10 01:35:28;;;;;;;;;54.00;41.50;;;;;9.80;67.63;101990.19;5116682;27;45477;-75
2022/02/10 01:37:56;;;;;;;;;51.75;36.50;;;;;9.81;67.55;101984.03;5116914;27;46301;-75
2022/02/10 02:04:53;;;;;;;;;36.75;34.00;;;;;9.82;68.27;101984.94;5111414;27;45395;-75
2022/02/10 02:07:28;;;;;;;;;44.25;33.50;;;;;9.80;68.94;101979.63;5117018;27;45589;-76
2022/02/10 02:09:53;;;;;;;;;42.75;36.50;;;;;9.84;68.26;101985.88;5114368;27;47463;-75
2022/02/10 02:12:19;;;;;;;;;40.25;33.50;;;;;9.79;68.58;101984.81;5112180;27;45597;-75
2022/02/10 02:14:44;;;;;;;;;43.75;35.00;;;;;9.76;68.83;101985.63;5116526;27;51657;-75
2022/02/10 02:17:10;;;;;;;;;34.00;32.00;;;;;9.77;68.92;101991.81;5113036;27;45444;-75
2022/02/10 02:19:35;;;;;;;;;47.75;35.50;;;;;9.78;68.64;101990.94;5107706;27;46287;-75
2022/02/10 02:22:07;;;;;;;;;42.75;35.00;;;;;9.77;68.56;101987.41;5113925;27;45354;-75
2022/02/10 02:24:33;;;;;;;;;42.50;35.00;;;;;9.76;68.93;102000.56;5120048;27;45617;-76
2022/02/10 02:27:03;;;;;;;;;41.75;35.50;;;;;9.73;68.74;101997.81;5119657;27;45581;-76
2022/02/10 02:29:42;;;;;;;;;37.25;34.00;;;;;9.69;68.91;102002.09;5118819;27;45464;-75
2022/02/10 02:32:14;;;;;;;;;52.00;37.25;;;;;9.66;69.20;101987.06;5113190;27;45519;-76
2022/02/10 02:37:48;;;;;;;;;37.00;32.00;;;;;9.67;69.27;101994.13;5119066;27;45557;-77
2022/02/10 03:05:16;;;;;;;;;27.00;26.75;;;;;9.65;69.50;101960.66;5079211;28;45399;-76
2022/02/10 03:12:45;;;;;;;;;41.75;35.00;;;;;9.80;69.13;101979.63;5079161;28;45699;-77
2022/02/10 03:15:41;;;;;;;;;39.50;31.75;;;;;9.82;68.99;101977.91;5078683;28;55421;-77
2022/02/10 03:20:46;;;;;;;;;41.25;34.50;;;;;9.86;69.12;101979.81;5078263;28;45357;-76
2022/02/10 04:09:50;;;;;;;;;35.00;28.25;;;;;9.81;68.47;102017.44;5077806;28;45395;-76
2022/02/10 04:17:49;;;;;;;;;35.00;26.50;;;;;9.79;67.93;102011.19;5076861;28;45747;-76
2022/02/10 05:03:15;;;;;;;;;28.25;26.00;;;;;9.58;67.99;102029.84;5077248;28;45256;-76
2022/02/10 05:18:46;;;;;;;;;24.50;23.75;;;;;9.64;67.86;102025.69;5076742;28;45311;-75
2022/02/10 05:21:30;;;;;;;;;32.25;28.00;;;;;9.66;67.73;102031.00;5074878;28;46775;-76
2022/02/10 05:34:44;;;;;;;;;31.00;24.75;;;;;9.73;67.52;102035.63;5077130;28;45575;-77
2022/02/10 05:37:09;;;;;;;;;32.00;27.25;;;;;9.73;67.87;102033.00;5076533;28;45341;-76
2022/02/10 05:39:39;;;;;;;;;29.25;25.50;;;;;9.73;67.42;102046.19;5076378;28;45293;-76
2022/02/10 05:50:49;;;;;;;;;25.75;21.00;;;;;9.74;67.52;102060.25;5076773;28;45521;-76
2022/02/10 05:58:34;;;;;;;;;25.50;24.25;;;;;9.66;67.20;102066.19;5076326;28;45319;-76
2022/02/10 06:41:22;;;;;;;;;39.00;30.25;;;;;9.76;67.40;102075.31;5075965;28;45219;-77
2022/02/10 06:48:30;;;;;;;;;30.00;27.50;;;;;9.73;67.25;102074.31;5073829;28;46350;-78
2022/02/10 06:50:59;;;;;;;;;40.50;29.75;;;;;9.76;67.50;102074.41;5063024;28;45469;-76
2022/02/10 06:52:57;;;;;;;;;35.00;29.00;;;;;9.77;67.21;102085.00;5065806;28;45530;-76
2022/02/10 07:03:37;;;;;;;;;31.50;31.00;;;;;9.38;68.57;102088.06;5068887;28;45508;-78
2022/02/10 07:45:02;;;;;;;;;35.00;27.50;;;;;9.02;70.34;102073.53;5075214;28;45614;-78
2022/02/10 09:48:02;;;;;;;;;27.00;23.50;;;;;10.93;65.85;102175.09;5067676;28;45539;-76
2022/02/10 10:03:52;;;;;;;;;36.00;29.00;;;;;11.14;65.13;102183.69;5065601;28;45579;-77
2022/02/10 10:06:26;;;;;;;;;37.00;27.75;;;;;11.17;64.94;102189.03;5074884;28;45453;-76
2022/02/10 10:09:39;;;;;;;;;37.00;28.25;;;;;11.15;64.98;102174.00;5070715;28;45599;-77
2022/02/10 10:14:29;;;;;;;;;34.75;27.50;;;;;11.21;64.65;102184.75;5071939;28;45216;-77
2022/02/10 10:53:43;;;;;;;;;27.75;24.00;;;;;11.95;62.34;102179.84;5060057;28;45368;-78
2022/02/10 10:56:13;;;;;;;;;27.00;23.25;;;;;11.97;62.97;102188.72;5074825;28;47440;-76
2022/02/10 10:58:56;;;;;;;;;23.75;21.25;;;;;11.95;62.81;102191.31;5069887;28;45556;-75
2022/02/10 11:38:37;;;;;;;;;17.00;12.00;;;;;12.60;61.61;102159.44;5076494;28;45299;-78
2022/02/10 13:33:37;;;;;;;;;17.50;11.25;;;;;12.13;67.59;102047.03;5070559;28;46396;-76
2022/02/10 14:16:05;;;;;;;;;16.33;9.33;;;;;12.35;65.16;102029.91;5073831;28;46499;-77
2022/02/10 14:18:37;;;;;;;;;13.67;10.00;;;;;12.28;64.83;102024.47;5076887;28;45561;-75
2022/02/10 14:21:11;;;;;;;;;17.00;11.33;;;;;12.27;64.72;102024.44;5052857;28;45505;-77
2022/02/10 14:28:37;;;;;;;;;17.00;12.67;;;;;12.24;64.94;102022.59;5075779;28;45568;-77
2022/02/10 14:31:04;;;;;;;;;14.67;12.00;;;;;12.25;64.98;102013.81;5073419;28;56026;-78
2022/02/10 14:33:32;;;;;;;;;12.67;11.67;;;;;12.25;64.86;102015.53;5070200;28;45477;-76
2022/02/10 14:36:07;;;;;;;;;11.00;10.00;;;;;12.26;64.91;102010.31;5077321;28;47654;-76
2022/02/10 15:32:08;;;;;;;;;23.50;19.75;;;;;12.32;67.02;101997.19;5086527;27;45798;-77
2022/02/10 15:36:31;;;;;;;;;23.50;19.75;;;;;12.36;66.83;102005.19;5093243;27;45460;-77
2022/02/10 15:53:01;;;;;;;;;22.50;19.00;;;;;12.61;67.05;102004.00;5082326;27;46372;-77
2022/02/10 15:55:45;;;;;;;;;24.50;23.00;;;;;12.62;66.91;101998.72;5084196;27;45454;-76
2022/02/10 16:14:57;;;;;;;;;21.50;19.50;;;;;12.53;67.01;101985.28;5085628;27;46403;-76
2022/02/10 16:17:24;;;;;;;;;21.50;20.50;;;;;12.48;67.19;101969.28;5086360;27;45494;-75
2022/02/10 16:19:49;;;;;;;;;26.75;20.00;;;;;12.49;67.22;101976.38;5093935;27;45557;-76
2022/02/10 16:24:52;;;;;;;;;21.00;20.00;;;;;12.46;66.82;101980.69;5088416;27;45818;-75
2022/02/10 16:27:23;;;;;;;;;18.75;18.00;;;;;12.40;67.10;101968.22;5082835;27;45351;-76
2022/02/10 16:29:49;;;;;;;;;22.25;19.75;;;;;12.44;67.23;101983.34;5085309;27;45608;-75
2022/02/10 16:32:14;;;;;;;;;26.25;21.50;;;;;12.39;67.04;101976.16;5088192;27;45484;-76
2022/02/10 16:34:45;;;;;;;;;20.25;18.00;;;;;12.37;66.71;101973.47;5091413;27;60185;-76
2022/02/10 16:37:11;;;;;;;;;27.50;22.00;;;;;12.36;67.18;101979.63;5085761;27;45292;-76
2022/02/10 16:39:40;;;;;;;;;21.00;17.50;;;;;12.35;67.13;101982.22;5085663;27;45146;-78
2022/02/10 16:42:07;;;;;;;;;32.75;21.75;;;;;12.36;67.34;101984.00;5083920;27;45434;-76
2022/02/10 16:44:33;;;;;;;;;32.25;24.75;;;;;12.32;67.40;101989.25;5092557;27;46775;-75
2022/02/10 16:47:00;;;;;;;;;30.25;24.25;;;;;12.31;67.43;101989.22;5065486;27;45344;-76
2022/02/10 16:49:27;;;;;;;;;25.50;20.50;;;;;12.29;67.34;101994.47;5080764;27;45446;-75
2022/02/10 16:51:52;;;;;;;;;24.75;21.25;;;;;12.26;67.15;101999.72;5087591;27;45494;-75
2022/02/10 16:57:19;;;;;;;;;20.67;18.00;;;;;12.19;67.36;101992.47;5091475;27;47023;-75
2022/02/10 17:00:05;;;;;;;;;21.67;19.33;;;;;12.15;67.34;101998.59;5081552;27;45575;-75
2022/02/10 17:02:48;;;;;;;;;22.00;19.00;;;;;12.11;67.72;102004.66;5089676;27;45651;-76
2022/02/10 17:19:10;;;;;;;;;11.00;9.33;;;;;11.37;73.80;102065.34;5093588;27;46535;-76
2022/02/10 17:27:06;;;;;;;;;12.25;12.25;;;;;11.02;70.50;102059.06;5080108;27;45736;-75
2022/02/10 17:41:19;;;;;;;;;14.50;13.00;;;;;10.76;70.26;102097.94;5077110;27;45697;-76
2022/02/10 17:43:53;;;;;;;;;18.50;13.25;;;;;10.67;70.15;102110.88;5085281;27;45328;-75
2022/02/10 17:45:55;;;;;;;;;6.00;5.33;;;;;10.61;70.22;102105.41;5082581;27;45402;-76
2022/02/10 17:53:48;;;;;;;;;8.00;8.00;;;;;10.51;70.05;102127.09;5085371;27;45584;-76
2022/02/10 17:56:13;;;;;;;;;11.50;7.75;;;;;10.53;70.31;102133.28;5077032;27;45418;-76
2022/02/10 17:58:40;;;;;;;;;10.00;9.25;;;;;10.49;69.89;102140.22;5079998;27;46690;-76
2022/02/10 18:01:13;;;;;;;;;11.00;7.00;;;;;10.43;69.96;102138.28;5086289;27;58093;-76
2022/02/10 18:03:38;;;;;;;;;8.50;7.00;;;;;10.37;70.52;102142.47;5092758;27;55910;-76
2022/02/10 18:08:44;;;;;;;;;14.25;9.00;;;;;10.28;70.25;102144.78;5083686;27;45667;-76
2022/02/10 18:12:24;;;;;;;;;12.50;8.00;;;;;10.22;70.42;102145.44;5080539;27;45479;-75
2022/02/10 18:14:03;;;;;;;;;15.25;9.00;;;;;10.21;70.34;102146.31;5074168;27;45373;-75
2022/02/10 18:19:19;;;;;;;;;10.00;9.00;;;;;10.14;70.25;102141.69;5077687;27;46494;-75
2022/02/10 18:29:31;;;;;;;;;7.25;7.00;;;;;10.04;70.18;102185.31;5086730;27;45926;-75
2022/02/10 19:09:38;;;;;;;;;17.25;12.25;;;;;9.65;68.72;102246.38;5084197;27;45508;-75
2022/02/10 19:12:13;;;;;;;;;14.50;11.00;;;;;9.65;68.75;102242.84;5081109;27;45914;-75
2022/02/10 19:14:39;;;;;;;;;14.00;11.00;;;;;9.65;68.79;102256.91;5068963;27;45598;-76
2022/02/10 19:17:10;;;;;;;;;10.67;5.33;;;;;9.62;68.54;102255.88;5065044;28;45380;-76
2022/02/10 19:19:36;;;;;;;;;4.00;4.00;;;;;9.66;68.82;102245.53;5069828;27;45560;-76
2022/02/10 19:22:01;;;;;;;;;2.00;2.00;;;;;9.67;68.51;102254.31;5092970;27;47292;-75
2022/02/10 19:24:26;;;;;;;;;6.00;3.00;;;;;9.63;68.90;102249.75;5097517;27;45316;-75
2022/02/10 19:26:52;;;;;;;;;3.00;3.00;;;;;9.67;68.95;102257.84;5090477;27;46067;-75
2022/02/10 19:29:19;;;;;;;;;4.67;3.00;;;;;9.70;68.84;102267.63;5095316;27;45463;-75
2022/02/10 19:31:45;;;;;;;;;7.00;5.33;;;;;9.69;68.82;102260.53;5093133;27;47108;-76
2022/02/10 19:34:11;;;;;;;;;7.00;4.50;;;;;9.70;68.74;102267.63;5095123;27;45321;-75
2022/02/10 19:36:38;;;;;;;;;2.00;2.00;;;;;9.68;68.63;102267.56;5083458;27;45201;-75
2022/02/10 19:39:03;;;;;;;;;7.33;6.33;;;;;9.63;68.45;102268.22;5081434;27;45355;-75
2022/02/10 19:41:33;;;;;;;;;8.00;4.50;;;;;9.66;68.52;102282.44;5093049;27;46480;-75
2022/02/10 19:44:01;;;;;;;;;6.50;6.00;;;;;9.65;68.64;102285.03;5093440;27;45516;-76
2022/02/10 19:46:26;;;;;;;;;6.25;6.25;;;;;9.64;68.45;102285.84;5082383;27;45329;-75
2022/02/10 19:48:52;;;;;;;;;8.75;7.00;;;;;9.63;68.75;102279.66;5079106;27;45204;-76
2022/02/10 19:51:17;;;;;;;;;6.00;4.00;;;;;9.63;68.68;102291.97;5078614;27;46423;-75
2022/02/10 19:53:43;;;;;;;;;6.75;4.00;;;;;9.61;68.93;102293.66;5083587;27;56412;-75
2022/02/10 19:56:15;;;;;;;;;7.25;6.00;;;;;9.60;68.86;102297.13;5078475;27;51827;-75
2022/02/10 19:58:43;;;;;;;;;24.50;17.00;;;;;9.58;69.15;102298.78;5061289;27;45893;-75
2022/02/10 20:01:09;;;;;;;;;6.00;6.00;;;;;9.55;69.06;102286.41;5086731;27;47452;-75
2022/02/10 20:03:39;;;;;;;;;5.50;4.50;;;;;9.53;69.12;102293.34;5090355;27;45581;-75
2022/02/10 20:06:04;;;;;;;;;6.00;5.50;;;;;9.56;68.96;102296.09;5090308;27;45583;-75
2022/02/10 20:08:30;;;;;;;;;11.75;8.00;;;;;9.56;69.00;102301.38;5086587;27;45368;-75
2022/02/10 20:10:57;;;;;;;;;16.00;13.75;;;;;9.58;68.87;102306.72;5081483;27;46494;-75
2022/02/10 20:13:29;;;;;;;;;12.00;9.25;;;;;9.59;69.13;102305.91;5093796;27;45263;-75
2022/02/10 20:16:00;;;;;;;;;14.25;11.75;;;;;9.56;68.91;102305.75;5097030;27;45342;-75
2022/02/10 20:18:26;;;;;;;;;12.50;11.50;;;;;9.58;69.15;102304.06;5078823;27;45430;-75
2022/02/10 20:20:53;;;;;;;;;17.50;14.00;;;;;9.55;69.17;102301.34;5077924;27;45543;-75
2022/02/10 20:23:20;;;;;;;;;15.25;11.75;;;;;9.58;69.34;102304.06;5071135;27;45478;-75
2022/02/10 20:25:46;;;;;;;;;23.25;14.50;;;;;9.60;69.44;102307.69;5095291;27;45204;-75
2022/02/10 20:28:12;;;;;;;;;21.00;16.50;;;;;9.61;69.49;102296.28;5086673;27;45458;-76
2022/02/10 20:30:38;;;;;;;;;9.00;9.00;;;;;9.62;69.36;102306.00;5088467;27;47050;-75
2022/02/10 20:33:04;;;;;;;;;15.00;11.25;;;;;9.59;69.39;102295.34;5095066;27;45232;-75
2022/02/10 20:35:29;;;;;;;;;14.25;10.50;;;;;9.56;69.18;102311.03;5091695;27;45226;-75
2022/02/10 20:38:00;;;;;;;;;10.25;10.25;;;;;9.50;69.40;102324.00;5090502;27;45461;-75
2022/02/10 20:40:25;;;;;;;;;8.75;7.00;;;;;9.47;69.09;102327.38;5089208;27;47267;-76
2022/02/10 20:43:02;;;;;;;;;6.00;6.00;;;;;9.44;68.85;102328.19;5080965;27;45434;-75
2022/02/10 20:45:27;;;;;;;;;6.25;6.25;;;;;9.39;68.91;102327.09;5087937;27;45644;-74
2022/02/10 20:47:52;;;;;;;;;4.25;4.25;;;;;9.41;69.18;102328.03;5078019;27;46025;-75
2022/02/10 20:50:20;;;;;;;;;7.50;6.00;;;;;9.40;69.05;102335.91;5077828;27;47055;-75
2022/02/10 20:52:46;;;;;;;;;7.50;6.00;;;;;9.41;68.81;102337.69;5089799;27;52324;-75
2022/02/10 20:55:14;;;;;;;;;8.00;6.50;;;;;9.41;68.77;102335.06;5092791;27;48547;-75
2022/02/10 20:57:39;;;;;;;;;7.25;5.00;;;;;9.39;69.15;102340.28;5078768;27;45740;-75
2022/02/10 21:00:16;;;;;;;;;5.00;4.25;;;;;9.40;69.39;102346.44;5089985;27;47332;-75
2022/02/10 21:02:49;;;;;;;;;10.50;6.00;;;;;9.40;69.02;102335.91;5063503;27;45573;-75
2022/02/10 21:05:32;;;;;;;;;8.00;7.00;;;;;9.35;69.09;102333.06;5086520;27;45567;-76
2022/02/10 21:10:29;;;;;;;;;11.75;7.00;;;;;9.39;69.16;102350.81;5086402;27;46341;-75
2022/02/10 21:12:54;;;;;;;;;5.00;4.50;;;;;9.38;69.16;102351.66;5089063;27;45576;-76
2022/02/10 21:15:26;;;;;;;;;7.00;6.50;;;;;9.35;69.12;102348.88;5080002;27;47100;-75
2022/02/10 21:17:57;;;;;;;;;5.50;4.00;;;;;9.33;68.83;102349.69;5089048;27;45446;-75
2022/02/10 21:20:25;;;;;;;;;7.00;4.25;;;;;9.29;68.48;102358.28;5094038;27;47555;-75
2022/02/10 21:23:00;;;;;;;;;6.00;6.00;;;;;9.32;68.88;102353.13;5092929;27;45491;-76
2022/02/10 21:25:33;;;;;;;;;6.50;6.00;;;;;9.32;69.11;102347.84;5088594;27;45554;-75
2022/02/10 21:28:04;;;;;;;;;7.00;6.75;;;;;9.31;68.74;102354.88;5081108;27;45679;-75
2022/02/10 21:30:30;;;;;;;;;6.75;6.75;;;;;9.29;69.17;102356.56;5089073;27;46941;-75
2022/02/10 21:32:58;;;;;;;;;9.25;6.75;;;;;9.31;68.99;102360.13;5093937;27;53609;-75
2022/02/10 21:37:59;;;;;;;;;8.25;6.75;;;;;9.31;68.64;102359.25;5091504;27;45391;-76
2022/02/10 21:40:30;;;;;;;;;8.00;8.00;;;;;9.25;68.74;102357.25;5086688;27;46629;-76
2022/02/10 21:56:48;;;;;;;;;12.75;9.25;;;;;9.09;68.64;102362.75;5077161;28;45413;-75
2022/02/10 22:07:29;;;;;;;;;8.25;8.00;;;;;9.12;68.97;102373.41;5082841;27;45354;-75
2022/02/10 22:20:16;;;;;;;;;8.50;8.50;;;;;9.02;68.76;102368.59;5097044;27;45365;-76
2022/02/10 22:23:00;;;;;;;;;11.00;9.25;;;;;9.04;69.09;102374.81;5082314;27;46508;-76
2022/02/10 22:25:26;;;;;;;;;9.25;7.75;;;;;9.02;68.99;102385.31;5085549;27;45380;-75
2022/02/10 22:27:53;;;;;;;;;12.00;8.00;;;;;8.99;68.77;102382.53;5080589;27;45426;-75
2022/02/10 22:30:32;;;;;;;;;11.00;7.75;;;;;8.96;68.80;102390.31;5086325;27;45366;-75
2022/02/10 22:33:17;;;;;;;;;13.25;9.25;;;;;8.93;68.61;102396.34;5062291;28;47685;-75
2022/02/10 22:35:54;;;;;;;;;12.00;9.75;;;;;8.90;68.72;102395.34;5076641;28;45514;-75
2022/02/10 22:38:22;;;;;;;;;11.50;9.75;;;;;8.84;68.91;102401.25;5098116;27;45225;-75
2022/02/10 22:41:03;;;;;;;;;12.25;10.25;;;;;8.79;68.86;102408.03;5091970;27;45306;-75
2022/02/10 22:43:28;;;;;;;;;12.75;11.50;;;;;8.73;68.94;102399.84;5079501;27;47218;-75
2022/02/10 22:45:53;;;;;;;;;11.50;11.00;;;;;8.67;69.00;102391.69;5086477;27;45457;-75
2022/02/10 22:48:19;;;;;;;;;11.25;10.75;;;;;8.61;69.05;102404.59;5081100;27;45983;-75
2022/02/10 22:50:44;;;;;;;;;9.25;7.00;;;;;8.54;68.81;102389.34;5080577;27;45588;-75
2022/02/10 22:53:10;;;;;;;;;11.50;11.50;;;;;8.47;69.41;102406.63;5090857;27;50215;-75
2022/02/10 22:55:37;;;;;;;;;13.25;11.25;;;;;8.44;69.30;102398.56;5079264;28;58217;-75
2022/02/10 22:58:03;;;;;;;;;11.00;11.00;;;;;8.39;69.28;102408.88;5084022;27;45503;-75
2022/02/10 23:00:33;;;;;;;;;13.75;11.50;;;;;8.32;69.20;102388.38;5083438;27;46450;-75
2022/02/10 23:03:00;;;;;;;;;12.00;10.50;;;;;8.33;69.64;102412.94;5088842;27;47407;-75
2022/02/10 23:05:26;;;;;;;;;15.75;11.75;;;;;8.30;69.56;102423.31;5091576;27;45382;-75
2022/02/10 23:07:59;;;;;;;;;16.00;13.50;;;;;8.24;69.54;102413.41;5079674;28;45273;-75
2022/02/10 23:13:13;;;;;;;;;16.50;11.75;;;;;8.22;69.39;102424.72;5093619;27;45633;-75
2022/02/10 23:15:39;;;;;;;;;15.75;12.25;;;;;8.19;69.95;102428.09;5086679;27;45330;-76
2022/02/10 23:18:12;;;;;;;;;14.25;11.25;;;;;8.16;69.79;102433.22;5087265;27;45443;-76
2022/02/10 23:20:37;;;;;;;;;12.00;10.50;;;;;8.08;69.89;102427.59;5079188;27;45384;-78
2022/02/10 23:23:05;;;;;;;;;13.25;10.25;;;;;8.04;69.93;102430.00;5086436;27;47411;-78
2022/02/10 23:25:32;;;;;;;;;15.00;13.25;;;;;8.04;69.87;102432.63;5083556;27;45417;-76
2022/02/10 23:27:57;;;;;;;;;17.50;13.75;;;;;8.02;69.99;102442.19;5094649;27;45411;-76
2022/02/10 23:30:23;;;;;;;;;24.00;16.50;;;;;7.98;69.97;102442.88;5089453;27;45601;-76
2022/02/10 23:32:49;;;;;;;;;18.75;17.25;;;;;7.93;69.89;102444.38;5078117;28;46806;-76
2022/02/10 23:35:57;;;;;;;;;14.00;12.00;;;;;7.96;70.27;102460.31;5086410;27;45601;-76
2022/02/10 23:38:01;;;;;;;;;19.00;13.50;;;;;7.93;69.95;102453.16;5099007;27;45620;-77
2022/02/10 23:40:34;;;;;;;;;21.25;14.00;;;;;7.89;70.26;102456.50;5084026;27;45570;-76
2022/02/10 23:43:06;;;;;;;;;15.50;15.00;;;;;7.87;70.10;102456.41;5078747;28;46618;-76
2022/02/10 23:45:40;;;;;;;;;20.50;14.50;;;;;7.83;70.17;102457.13;5079288;28;45461;-76
2022/02/10 23:48:05;;;;;;;;;23.50;16.00;;;;;7.82;70.26;102462.28;5079375;28;45361;-76
2022/02/10 23:50:36;;;;;;;;;21.50;16.75;;;;;7.80;70.37;102456.94;5078414;27;45149;-76
2022/02/10 23:53:01;;;;;;;;;23.50;20.75;;;;;7.79;70.13;102468.31;5078925;28;46601;-77
2022/02/10 23:55:32;;;;;;;;;22.25;18.50;;;;;7.79;70.10;102473.56;5079085;28;45347;-76
